This is the latest recevied weather packets stored in our database for station/object DG1ABU-11. If no packets are shown the sender has not sent any weather packets the latest 10 day(s).
| Time | Temp. | Humidity | Pressure | Rain* | Wind** | Luminosity | Snow |
|---|---|---|---|---|---|---|---|
| 1777892550 | 27.22° C | 32% | 1014 hPa | - | - | - | - |
| 1777891650 | 26.67° C | 34% | 1014.2 hPa | - | - | - | - |
| 1777890750 | 25.56° C | 36% | 1014.2 hPa | - | - | - | - |
| 1777889850 | 25° C | 37% | 1014.3 hPa | - | - | - | - |
| 1777888950 | 23.89° C | 38% | 1014.3 hPa | - | - | - | - |
| 1777888049 | 22.78° C | 40% | 1014.3 hPa | - | - | - | - |
| 1777887150 | 22.22° C | 41% | 1014.5 hPa | - | - | - | - |
| 1777886249 | 21.11° C | 43% | 1014.7 hPa | - | - | - | - |
| 1777885349 | 21.11° C | 43% | 1014.5 hPa | - | - | - | - |
| 1777884449 | 20.56° C | 41% | 1014.4 hPa | - | - | - | - |
| 1777883549 | 20° C | 42% | 1014.5 hPa | - | - | - | - |
| 1777882649 | 19.44° C | 44% | 1014.5 hPa | - | - | - | - |
| 1777881749 | 18.89° C | 45% | 1014.4 hPa | - | - | - | - |
| 1777880849 | 18.33° C | 47% | 1014.2 hPa | - | - | - | - |
| 1777879949 | 18.33° C | 46% | 1014.1 hPa | - | - | - | - |
| 1777879049 | 17.78° C | 47% | 1014 hPa | - | - | - | - |
| 1777878149 | 17.78° C | 48% | 1013.8 hPa | - | - | - | - |
| 1777877249 | 17.22° C | 48% | 1013.8 hPa | - | - | - | - |
| 1777876349 | 16.67° C | 47% | 1013.9 hPa | - | - | - | - |
| 1777875449 | 16.11° C | 48% | 1013.8 hPa | - | - | - | - |
| 1777874549 | 16.11° C | 47% | 1013.7 hPa | - | - | - | - |
| 1777873649 | 15.56° C | 53% | 1013.5 hPa | - | - | - | - |
| 1777872748 | 15.56° C | 46% | 1013.3 hPa | - | - | - | - |
| 1777871848 | 15.56° C | 46% | 1013.2 hPa | - | - | - | - |
| 1777870948 | 15.56° C | 45% | 1013.1 hPa | - | - | - | - |
* Rain since midnight (hover to see other rain measurements)
** Current wind speed in m/s (hover to see current wind gust speed)